createdAt,value
2023-02-26T00:01:31.859Z,97771.69
2023-02-26T00:04:03.392Z,97784.09
2023-02-26T00:06:34.811Z,97779.16
2023-02-26T00:09:03.696Z,97778.94
2023-02-26T00:11:31.601Z,97782.53
2023-02-26T00:13:59.431Z,97772.84
2023-02-26T00:16:33.615Z,97770.91
2023-02-26T00:19:03.432Z,97777.63
2023-02-26T00:21:32.055Z,97774.69
2023-02-26T00:24:00.530Z,97780.19
2023-02-26T00:26:28.859Z,97780.03
2023-02-26T00:28:56.566Z,97781.63
2023-02-26T00:31:24.928Z,97782.66
2023-02-26T00:33:56.968Z,97786.44
2023-02-26T00:36:25.930Z,97790.75
2023-02-26T00:39:09.302Z,97785.88
2023-02-26T00:41:37.025Z,97784.38
2023-02-26T00:44:04.532Z,97793.91
2023-02-26T00:46:53.321Z,97795.41
2023-02-26T00:49:44.583Z,97799.16
2023-02-26T00:52:22.959Z,97791.81
2023-02-26T00:54:50.332Z,97802.50
2023-02-26T00:57:17.647Z,97798.28
2023-02-26T00:59:44.999Z,97795.81
2023-02-26T01:02:12.281Z,97797.13
2023-02-26T01:04:40.608Z,97794.88
2023-02-26T01:07:09.753Z,97794.25
2023-02-26T01:09:38.381Z,97790.13
2023-02-26T01:12:12.883Z,97798.19
2023-02-26T01:14:41.403Z,97800.09
2023-02-26T01:17:25.605Z,97790.19
2023-02-26T01:19:54.409Z,97785.31
2023-02-26T01:22:49.119Z,97799.31
2023-02-26T01:25:41.530Z,97792.91
2023-02-26T01:28:09.472Z,97787.78
2023-02-26T01:30:37.304Z,97791.13
2023-02-26T01:33:26.377Z,97791.50
2023-02-26T01:36:08.496Z,97789.78
2023-02-26T01:39:03.466Z,97794.13
2023-02-26T01:41:40.375Z,97796.38
2023-02-26T01:44:35.858Z,97793.16
2023-02-26T01:47:15.043Z,97802.97
2023-02-26T01:49:43.029Z,97801.56
2023-02-26T01:52:32.209Z,97798.53
2023-02-26T01:55:01.498Z,97803.25
2023-02-26T01:57:28.854Z,97802.69
2023-02-26T01:59:56.191Z,97812.47
2023-02-26T02:02:25.560Z,97801.91
2023-02-26T02:04:53.683Z,97801.38
2023-02-26T02:07:21.036Z,97802.16
2023-02-26T02:09:48.437Z,97802.72
2023-02-26T02:12:34.772Z,97804.16
2023-02-26T02:15:08.340Z,97805.03
2023-02-26T02:18:03.028Z,97806.84
2023-02-26T02:20:58.428Z,97808.38
2023-02-26T02:23:50.310Z,97807.16
2023-02-26T02:26:45.772Z,97812.69
2023-02-26T02:29:53.786Z,97820.31
2023-02-26T02:32:39.176Z,97820.00
2023-02-26T02:35:26.635Z,97819.19
2023-02-26T02:38:04.659Z,97812.84
2023-02-26T02:40:36.439Z,97824.72
2023-02-26T02:43:14.650Z,97832.41
2023-02-26T02:45:50.175Z,97828.97
2023-02-26T02:48:25.335Z,97823.44
2023-02-26T02:50:58.079Z,97834.97
2023-02-26T02:53:38.047Z,97840.25
2023-02-26T02:56:13.233Z,97827.84
2023-02-26T02:58:43.708Z,97834.34
2023-02-26T03:01:15.894Z,97838.03
2023-02-26T03:04:13.598Z,97843.72
2023-02-26T03:06:41.101Z,97851.28
2023-02-26T03:09:09.681Z,97852.09
2023-02-26T03:11:41.357Z,97850.75
2023-02-26T03:14:10.238Z,97854.16
2023-02-26T03:16:43.803Z,97850.03
2023-02-26T03:19:41.829Z,97849.44
2023-02-26T03:22:22.822Z,97847.94
2023-02-26T03:25:45.897Z,97846.16
2023-02-26T03:28:36.288Z,97850.41
2023-02-26T03:31:24.089Z,97850.91
2023-02-26T03:34:05.967Z,97853.53
2023-02-26T03:36:39.506Z,97863.50
2023-02-26T03:39:27.921Z,97869.94
2023-02-26T03:42:00.523Z,97868.34
2023-02-26T03:44:38.410Z,97880.44
2023-02-26T03:47:08.688Z,97875.63
2023-02-26T03:49:59.209Z,97876.81
2023-02-26T03:52:30.122Z,97876.72
2023-02-26T03:55:26.482Z,97876.47
2023-02-26T03:57:59.951Z,97882.88
2023-02-26T04:00:31.893Z,97884.22
2023-02-26T04:03:20.214Z,97885.22
2023-02-26T04:05:50.814Z,97886.91
2023-02-26T04:08:20.453Z,97897.84
2023-02-26T04:11:00.895Z,97898.38
2023-02-26T04:13:28.592Z,97899.13
2023-02-26T04:15:56.720Z,97898.84
2023-02-26T04:18:24.151Z,97901.59
2023-02-26T04:20:51.535Z,97899.81
2023-02-26T04:23:19.418Z,97895.25
2023-02-26T04:25:47.534Z,97900.50
2023-02-26T04:28:16.957Z,97887.72
2023-02-26T04:30:44.429Z,97900.53
2023-02-26T04:33:14.069Z,97894.19
2023-02-26T04:35:41.736Z,97895.44
2023-02-26T04:38:09.879Z,97901.63
2023-02-26T04:40:37.289Z,97908.19
2023-02-26T04:43:04.787Z,97912.91
2023-02-26T04:45:36.987Z,97917.56
2023-02-26T04:48:04.487Z,97917.31
2023-02-26T04:50:31.903Z,97917.56
2023-02-26T04:52:59.206Z,97924.59
2023-02-26T04:55:26.935Z,97920.75
2023-02-26T04:57:54.222Z,97924.63
2023-02-26T05:00:25.738Z,97922.81
2023-02-26T05:02:53.085Z,97929.97
2023-02-26T05:05:20.394Z,97937.97
2023-02-26T05:07:47.743Z,97932.44
2023-02-26T05:10:15.996Z,97937.97
2023-02-26T05:12:43.273Z,97938.19
2023-02-26T05:15:10.960Z,97939.31
2023-02-26T05:17:38.295Z,97943.31
2023-02-26T05:20:10.047Z,97957.31
2023-02-26T05:22:38.653Z,97951.25
2023-02-26T05:25:06.570Z,97949.78
2023-02-26T05:27:34.269Z,97946.44
2023-02-26T05:30:01.629Z,97953.59
2023-02-26T05:32:29.048Z,97953.88
2023-02-26T05:34:57.244Z,97958.00
2023-02-26T05:37:24.642Z,97958.53
2023-02-26T05:39:51.979Z,97958.56
2023-02-26T05:42:19.236Z,97968.03
2023-02-26T05:44:46.488Z,97967.78
2023-02-26T05:47:13.787Z,97970.09
2023-02-26T05:49:41.041Z,97976.16
2023-02-26T05:52:08.495Z,97982.19
2023-02-26T05:54:35.756Z,97991.53
2023-02-26T05:57:03.122Z,97983.19
2023-02-26T05:59:30.376Z,97988.66
2023-02-26T06:01:58.432Z,97989.34
2023-02-26T06:04:25.968Z,97999.50
2023-02-26T06:06:53.251Z,97997.03
2023-02-26T06:09:20.541Z,98001.56
2023-02-26T06:11:47.803Z,98000.47
2023-02-26T06:14:15.043Z,98006.94
2023-02-26T06:16:42.396Z,98012.84
2023-02-26T06:19:09.760Z,98010.38
2023-02-26T06:21:37.083Z,98019.84
2023-02-26T06:24:04.523Z,98027.41
2023-02-26T06:26:31.786Z,98035.13
2023-02-26T06:28:59.144Z,98035.13
2023-02-26T06:31:26.499Z,98041.59
2023-02-26T06:33:53.835Z,98038.56
2023-02-26T06:36:21.138Z,98049.81
2023-02-26T06:38:48.703Z,98050.38
2023-02-26T06:41:15.781Z,98047.06
2023-02-26T06:43:43.137Z,98047.75
2023-02-26T06:46:10.492Z,98049.97
2023-02-26T06:48:37.897Z,98056.00
2023-02-26T06:51:07.409Z,98059.72
2023-02-26T06:53:34.865Z,98052.56
2023-02-26T06:56:03.246Z,98063.84
2023-02-26T06:58:30.695Z,98067.84
2023-02-26T07:00:58.089Z,98071.97
2023-02-26T07:03:25.484Z,98071.00
2023-02-26T07:05:52.891Z,98075.38
2023-02-26T07:08:20.322Z,98075.66
2023-02-26T07:10:49.405Z,98079.25
2023-02-26T07:13:20.063Z,98081.72
2023-02-26T07:15:47.414Z,98088.31
2023-02-26T07:18:15.050Z,98096.28
2023-02-26T07:20:43.165Z,98092.97
2023-02-26T07:23:10.827Z,98093.53
2023-02-26T07:25:38.494Z,98094.94
2023-02-26T07:28:06.145Z,98099.19
2023-02-26T07:30:34.021Z,98107.16
2023-02-26T07:33:01.554Z,98100.44
2023-02-26T07:35:28.911Z,98109.09
2023-02-26T07:37:56.251Z,98101.94
2023-02-26T07:40:23.605Z,98105.38
2023-02-26T07:42:51.203Z,98106.75
2023-02-26T07:45:22.563Z,98114.72
2023-02-26T07:47:51.726Z,98109.91
2023-02-26T07:50:19.960Z,98111.97
2023-02-26T07:52:47.611Z,98116.66
2023-02-26T07:55:15.187Z,98112.25
2023-02-26T07:57:42.552Z,98120.22
2023-02-26T08:00:10.536Z,98116.38
2023-02-26T08:02:43.439Z,98121.22
2023-02-26T08:05:10.864Z,98122.69
2023-02-26T08:07:38.193Z,98121.91
2023-02-26T08:10:06.199Z,98122.16
2023-02-26T08:12:33.511Z,98130.97
2023-02-26T08:15:00.797Z,98126.84
2023-02-26T08:17:28.187Z,98125.44
2023-02-26T08:19:55.485Z,98132.06
2023-02-26T08:22:23.734Z,98133.16
2023-02-26T08:24:51.173Z,98133.72
2023-02-26T08:27:18.448Z,98143.88
2023-02-26T08:29:46.326Z,98139.75
2023-02-26T08:32:15.885Z,98125.75
2023-02-26T08:34:43.351Z,98136.47
2023-02-26T08:37:11.687Z,98130.94
2023-02-26T08:39:39.558Z,98133.69
2023-02-26T08:42:08.043Z,98143.22
2023-02-26T08:44:35.342Z,98144.56
2023-02-26T08:47:03.677Z,98149.22
2023-02-26T08:49:31.193Z,98154.06
2023-02-26T08:51:58.846Z,98160.38
2023-02-26T08:54:26.651Z,98162.31
2023-02-26T08:56:56.011Z,98169.69
2023-02-26T08:59:26.061Z,98170.09
2023-02-26T09:01:53.490Z,98177.28
2023-02-26T09:04:21.001Z,98171.91
2023-02-26T09:06:49.155Z,98170.88
2023-02-26T09:09:16.458Z,98182.44
2023-02-26T09:11:44.010Z,98174.53
2023-02-26T09:14:11.670Z,98173.00
2023-02-26T09:16:39.017Z,98182.28
2023-02-26T09:19:07.287Z,98179.09
2023-02-26T09:21:35.760Z,98185.75
2023-02-26T09:24:03.290Z,98188.38
2023-02-26T09:26:30.800Z,98191.66
2023-02-26T09:28:58.137Z,98190.31
2023-02-26T09:31:25.593Z,98204.19
2023-02-26T09:33:52.913Z,98191.19
2023-02-26T09:36:20.249Z,98202.34
2023-02-26T09:38:47.840Z,98209.44
2023-02-26T09:41:34.309Z,98215.38
2023-02-26T09:44:17.912Z,98214.78
2023-02-26T09:46:58.537Z,98209.56
2023-02-26T09:49:58.013Z,98215.81
2023-02-26T09:52:52.414Z,98219.66
2023-02-26T09:55:39.885Z,98223.53
2023-02-26T09:58:22.860Z,98219.84
2023-02-26T10:01:16.414Z,98210.75
2023-02-26T10:04:12.719Z,98220.09
2023-02-26T10:07:11.412Z,98224.28
2023-02-26T10:09:41.582Z,98224.75
2023-02-26T10:12:16.281Z,98232.19
2023-02-26T10:15:03.656Z,98222.31
2023-02-26T10:17:59.001Z,98228.09
2023-02-26T10:20:44.932Z,98218.59
2023-02-26T10:23:35.265Z,98233.06
2023-02-26T10:26:19.459Z,98231.38
2023-02-26T10:29:22.687Z,98232.50
2023-02-26T10:32:07.425Z,98223.13
2023-02-26T10:34:45.301Z,98232.91
2023-02-26T10:37:52.449Z,98219.41
2023-02-26T10:41:11.974Z,98230.69
2023-02-26T10:43:42.501Z,98245.56
2023-02-26T10:46:30.179Z,98247.88
2023-02-26T10:49:38.023Z,98246.53
2023-02-26T10:52:18.783Z,98253.16
2023-02-26T10:55:15.635Z,98253.94
2023-02-26T10:58:12.007Z,98255.03
2023-02-26T11:00:42.660Z,98254.59
2023-02-26T11:03:36.214Z,98257.19
2023-02-26T11:06:04.277Z,98249.72
2023-02-26T11:08:37.185Z,98251.50
2023-02-26T11:11:05.570Z,98250.94
2023-02-26T11:13:35.588Z,98242.97
2023-02-26T11:16:30.898Z,98249.00
2023-02-26T11:19:00.710Z,98241.72
2023-02-26T11:21:39.296Z,98242.28
2023-02-26T11:24:13.196Z,98243.59
2023-02-26T11:26:47.564Z,98247.06
2023-02-26T11:29:20.264Z,98249.78
2023-02-26T11:31:55.806Z,98249.28
2023-02-26T11:34:25.720Z,98252.69
2023-02-26T11:36:57.329Z,98257.72
2023-02-26T11:39:33.518Z,98263.84
2023-02-26T11:42:02.704Z,98255.34
2023-02-26T11:44:39.772Z,98254.22
2023-02-26T11:47:14.060Z,98248.72
2023-02-26T11:49:45.832Z,98247.63
2023-02-26T11:52:44.761Z,98249.69
2023-02-26T11:55:23.047Z,98252.88
2023-02-26T11:57:54.929Z,98264.06
2023-02-26T12:00:31.271Z,98262.22
2023-02-26T12:03:08.344Z,98268.56
2023-02-26T12:05:37.035Z,98257.47
2023-02-26T12:08:18.545Z,98262.66
2023-02-26T12:11:15.485Z,98264.16
2023-02-26T12:14:00.870Z,98265.22
2023-02-26T12:16:53.911Z,98262.47
2023-02-26T12:19:24.113Z,98261.41
2023-02-26T12:22:18.758Z,98269.38
2023-02-26T12:25:21.725Z,98264.44
2023-02-26T12:28:10.012Z,98263.59
2023-02-26T12:31:02.887Z,98240.22
2023-02-26T12:33:57.386Z,98221.28
2023-02-26T12:36:52.989Z,98218.13
2023-02-26T12:39:45.351Z,98219.81
2023-02-26T12:42:27.120Z,98235.97
2023-02-26T12:45:31.777Z,98233.53
2023-02-26T12:48:03.860Z,98242.69
2023-02-26T12:50:37.363Z,98247.94
2023-02-26T12:53:43.101Z,98243.16
2023-02-26T12:56:34.802Z,98235.75
2023-02-26T12:59:29.468Z,98246.22
2023-02-26T13:02:34.462Z,98243.97
2023-02-26T13:05:20.499Z,98237.38
2023-02-26T13:08:23.887Z,98243.81
2023-02-26T13:11:16.274Z,98228.78
2023-02-26T13:13:56.203Z,98243.41
2023-02-26T13:16:52.594Z,98248.91
2023-02-26T13:19:30.903Z,98248.75
2023-02-26T13:22:05.567Z,98249.66
2023-02-26T13:24:50.729Z,98262.44
2023-02-26T13:27:18.539Z,98255.38
2023-02-26T13:29:59.637Z,98249.69
2023-02-26T13:32:28.692Z,98241.41
2023-02-26T13:35:01.249Z,98238.22
2023-02-26T13:37:39.106Z,98248.03
2023-02-26T13:40:38.745Z,98231.53
2023-02-26T13:43:25.466Z,98240.22
2023-02-26T13:46:27.681Z,98253.69
2023-02-26T13:49:04.708Z,98243.31
2023-02-26T13:51:31.956Z,98254.31
2023-02-26T13:54:02.285Z,98261.63
2023-02-26T13:56:32.296Z,98254.72
2023-02-26T13:59:17.246Z,98268.13
2023-02-26T14:01:57.406Z,98273.88
2023-02-26T14:04:29.989Z,98263.59
2023-02-26T14:07:15.632Z,98281.50
2023-02-26T14:10:02.306Z,98279.75
2023-02-26T14:12:29.568Z,98264.97
2023-02-26T14:15:10.710Z,98286.25
2023-02-26T14:17:50.264Z,98276.38
2023-02-26T14:20:26.853Z,98268.59
2023-02-26T14:23:18.917Z,98274.09
2023-02-26T14:25:55.008Z,98276.28
2023-02-26T14:28:25.144Z,98276.47
2023-02-26T14:31:11.603Z,98286.16
2023-02-26T14:34:04.494Z,98287.16
2023-02-26T14:36:46.090Z,98283.78
2023-02-26T14:39:38.074Z,98302.03
2023-02-26T14:42:53.498Z,98290.47
2023-02-26T14:45:40.627Z,98285.88
2023-02-26T14:48:18.628Z,98286.09
2023-02-26T14:51:26.288Z,98300.47
2023-02-26T14:54:21.052Z,98306.50
2023-02-26T14:57:21.506Z,98292.09
2023-02-26T14:59:51.952Z,98300.44
2023-02-26T15:02:28.615Z,98303.53
2023-02-26T15:05:04.711Z,98299.81
2023-02-26T15:07:49.559Z,98315.63
2023-02-26T15:10:41.405Z,98307.94
2023-02-26T15:13:26.635Z,98308.84
2023-02-26T15:16:14.774Z,98320.88
2023-02-26T15:19:37.130Z,98314.94
2023-02-26T15:22:44.167Z,98311.78
2023-02-26T15:25:36.658Z,98331.09
2023-02-26T15:28:06.023Z,98321.63
2023-02-26T15:30:34.754Z,98320.00
2023-02-26T15:33:07.803Z,98317.94
2023-02-26T15:35:35.113Z,98335.19
2023-02-26T15:38:04.159Z,98349.78
2023-02-26T15:40:35.585Z,98338.22
2023-02-26T15:43:03.417Z,98347.88
2023-02-26T15:45:36.007Z,98347.47
2023-02-26T15:48:06.135Z,98349.81
2023-02-26T15:50:36.876Z,98361.78
2023-02-26T15:53:05.476Z,98346.38
2023-02-26T15:55:36.690Z,98349.13
2023-02-26T15:58:05.782Z,98364.50
2023-02-26T16:00:36.923Z,98371.94
2023-02-26T16:03:04.561Z,98363.72
2023-02-26T16:05:32.193Z,98368.13
2023-02-26T16:07:59.569Z,98385.69
2023-02-26T16:10:39.298Z,98365.94
2023-02-26T16:13:16.217Z,98376.25
2023-02-26T16:15:43.833Z,98384.34
2023-02-26T16:18:18.844Z,98395.91
2023-02-26T16:20:49.386Z,98391.94
2023-02-26T16:23:22.822Z,98383.06
2023-02-26T16:26:00.093Z,98401.28
2023-02-26T16:28:49.660Z,98402.66
2023-02-26T16:31:20.341Z,98406.53
2023-02-26T16:34:22.835Z,98400.22
2023-02-26T16:36:51.782Z,98410.38
2023-02-26T16:39:27.676Z,98406.78
2023-02-26T16:42:15.208Z,98435.25
2023-02-26T16:44:54.518Z,98428.53
2023-02-26T16:47:22.138Z,98439.34
2023-02-26T16:49:50.169Z,98444.69
2023-02-26T16:52:22.443Z,98444.19
2023-02-26T16:55:03.018Z,98438.47
2023-02-26T16:57:43.152Z,98437.75
2023-02-26T17:00:27.609Z,98461.38
2023-02-26T17:02:55.845Z,98464.00
2023-02-26T17:05:31.082Z,98468.47
2023-02-26T17:08:09.880Z,98465.63
2023-02-26T17:10:54.380Z,98493.53
2023-02-26T17:13:28.919Z,98495.69
2023-02-26T17:16:02.424Z,98482.69
2023-02-26T17:18:30.883Z,98487.81
2023-02-26T17:20:58.930Z,98506.97
2023-02-26T17:23:32.736Z,98503.44
2023-02-26T17:26:02.321Z,98508.34
2023-02-26T17:28:36.606Z,98508.09
2023-02-26T17:31:04.590Z,98507.28
2023-02-26T17:33:31.989Z,98518.88
2023-02-26T17:36:01.833Z,98510.47
2023-02-26T17:38:29.614Z,98521.09
2023-02-26T17:40:58.218Z,98528.06
2023-02-26T17:43:25.655Z,98534.94
2023-02-26T17:45:53.532Z,98535.28
2023-02-26T17:48:24.583Z,98535.31
2023-02-26T17:50:54.790Z,98534.50
2023-02-26T17:53:27.541Z,98534.28
2023-02-26T17:55:56.414Z,98539.63
2023-02-26T17:58:31.889Z,98543.88
2023-02-26T18:00:59.694Z,98539.84
2023-02-26T18:03:27.335Z,98543.34
2023-02-26T18:05:56.355Z,98541.00
2023-02-26T18:08:31.981Z,98545.69
2023-02-26T18:11:01.154Z,98549.91
2023-02-26T18:13:29.744Z,98552.69
2023-02-26T18:15:58.147Z,98554.06
2023-02-26T18:18:26.666Z,98559.94
2023-02-26T18:20:54.454Z,98549.38
2023-02-26T18:23:22.131Z,98558.50
2023-02-26T18:25:51.966Z,98567.94
2023-02-26T18:28:25.614Z,98563.06
2023-02-26T18:30:53.544Z,98561.66
2023-02-26T18:33:21.419Z,98565.28
2023-02-26T18:35:53.315Z,98567.13
2023-02-26T18:38:23.877Z,98555.47
2023-02-26T18:40:52.197Z,98568.28
2023-02-26T18:43:19.757Z,98556.53
2023-02-26T18:45:49.153Z,98554.09
2023-02-26T18:48:19.497Z,98576.56
2023-02-26T18:50:47.367Z,98571.00
2023-02-26T18:53:17.130Z,98575.16
2023-02-26T18:55:44.956Z,98562.25
2023-02-26T18:58:13.274Z,98573.94
2023-02-26T19:00:41.929Z,98565.78
2023-02-26T19:03:09.461Z,98568.66
2023-02-26T19:05:37.316Z,98576.34
2023-02-26T19:08:05.754Z,98578.81
2023-02-26T19:10:34.390Z,98580.72
2023-02-26T19:13:02.043Z,98581.16
2023-02-26T19:15:29.602Z,98576.81
2023-02-26T19:17:56.953Z,98580.25
2023-02-26T19:20:24.291Z,98577.75
2023-02-26T19:22:51.718Z,98580.94
2023-02-26T19:25:23.940Z,98579.31
2023-02-26T19:27:54.168Z,98587.81
2023-02-26T19:30:23.284Z,98588.66
2023-02-26T19:32:51.400Z,98590.22
2023-02-26T19:35:19.562Z,98601.28
2023-02-26T19:37:47.256Z,98598.25
2023-02-26T19:40:19.529Z,98604.09
2023-02-26T19:42:47.275Z,98592.13
2023-02-26T19:45:15.653Z,98596.38
2023-02-26T19:47:43.012Z,98602.22
2023-02-26T19:50:11.465Z,98612.50
2023-02-26T19:52:38.960Z,98619.03
2023-02-26T19:55:08.058Z,98613.16
2023-02-26T19:57:35.487Z,98619.03
2023-02-26T20:00:03.685Z,98620.25
2023-02-26T20:02:39.395Z,98635.28
2023-02-26T20:05:07.631Z,98629.03
2023-02-26T20:07:35.626Z,98634.56
2023-02-26T20:10:03.116Z,98632.31
2023-02-26T20:12:30.486Z,98638.53
2023-02-26T20:14:57.995Z,98637.63
2023-02-26T20:17:25.563Z,98644.44
2023-02-26T20:19:55.031Z,98649.31
2023-02-26T20:22:24.442Z,98648.47
2023-02-26T20:24:54.452Z,98654.78
2023-02-26T20:27:21.957Z,98656.75
2023-02-26T20:29:50.920Z,98656.91
2023-02-26T20:32:18.428Z,98653.56
2023-02-26T20:34:45.875Z,98657.97
2023-02-26T20:37:13.196Z,98662.50
2023-02-26T20:39:40.666Z,98661.50
2023-02-26T20:42:07.943Z,98661.06
2023-02-26T20:44:35.260Z,98670.75
2023-02-26T20:47:02.610Z,98659.97
2023-02-26T20:49:30.496Z,98657.00
2023-02-26T20:51:58.158Z,98664.34
2023-02-26T20:54:25.735Z,98673.00
2023-02-26T20:56:53.013Z,98671.44
2023-02-26T20:59:20.437Z,98679.09
2023-02-26T21:01:48.483Z,98688.41
2023-02-26T21:04:15.838Z,98677.69
2023-02-26T21:06:43.268Z,98687.94
2023-02-26T21:09:11.176Z,98680.59
2023-02-26T21:11:39.474Z,98672.06
2023-02-26T21:14:08.254Z,98679.88
2023-02-26T21:16:36.349Z,98681.56
2023-02-26T21:19:04.422Z,98682.38
2023-02-26T21:21:32.095Z,98682.94
2023-02-26T21:23:59.576Z,98683.66
2023-02-26T21:26:27.649Z,98684.28
2023-02-26T21:28:55.091Z,98687.34
2023-02-26T21:31:22.418Z,98678.66
2023-02-26T21:33:49.781Z,98685.56
2023-02-26T21:36:17.221Z,98690.78
2023-02-26T21:38:44.570Z,98689.63
2023-02-26T21:41:12.410Z,98699.06
2023-02-26T21:43:39.700Z,98689.34
2023-02-26T21:46:07.125Z,98697.44
2023-02-26T21:48:34.742Z,98685.16
2023-02-26T21:51:02.300Z,98691.75
2023-02-26T21:53:29.773Z,98691.75
2023-02-26T21:55:57.722Z,98697.38
2023-02-26T21:58:25.530Z,98700.13
2023-02-26T22:00:52.918Z,98692.13
2023-02-26T22:03:20.338Z,98691.47
2023-02-26T22:05:53.326Z,98686.75
2023-02-26T22:08:20.671Z,98695.63
2023-02-26T22:10:48.026Z,98692.31
2023-02-26T22:13:15.648Z,98685.69
2023-02-26T22:15:43.254Z,98697.13
2023-02-26T22:18:10.558Z,98689.38
2023-02-26T22:20:38.112Z,98694.88
2023-02-26T22:23:05.380Z,98692.94
2023-02-26T22:25:32.964Z,98693.88
2023-02-26T22:28:00.492Z,98693.72
2023-02-26T22:30:27.943Z,98687.72
2023-02-26T22:32:55.298Z,98688.84
2023-02-26T22:35:22.718Z,98692.91
2023-02-26T22:37:50.359Z,98687.00
2023-02-26T22:40:18.091Z,98687.97
2023-02-26T22:42:46.061Z,98691.50
2023-02-26T22:45:16.946Z,98693.47
2023-02-26T22:47:45.691Z,98683.00
2023-02-26T22:50:17.533Z,98687.25
2023-02-26T22:52:44.854Z,98677.25
2023-02-26T22:55:12.326Z,98708.22
2023-02-26T22:57:39.814Z,98692.25
2023-02-26T23:00:14.583Z,98694.88
2023-02-26T23:02:42.440Z,98696.06
2023-02-26T23:05:10.104Z,98693.09
2023-02-26T23:07:39.130Z,98696.63
2023-02-26T23:10:09.607Z,98698.41
2023-02-26T23:12:37.400Z,98705.63
2023-02-26T23:15:07.120Z,98705.34
2023-02-26T23:17:34.568Z,98705.16
2023-02-26T23:20:01.937Z,98704.56
2023-02-26T23:22:29.382Z,98696.19
2023-02-26T23:24:56.696Z,98703.03
2023-02-26T23:27:23.979Z,98692.06
2023-02-26T23:29:51.497Z,98699.69
2023-02-26T23:32:18.861Z,98699.09
2023-02-26T23:34:48.380Z,98703.25
2023-02-26T23:37:15.624Z,98701.63
2023-02-26T23:39:42.899Z,98707.44
2023-02-26T23:42:10.226Z,98708.47
2023-02-26T23:44:37.474Z,98705.09
2023-02-26T23:47:04.751Z,98711.63
2023-02-26T23:49:31.995Z,98713.19
2023-02-26T23:51:59.337Z,98713.28
2023-02-26T23:54:26.570Z,98712.16
2023-02-26T23:56:53.870Z,98702.56
2023-02-26T23:59:21.112Z,98713.38
